Terminal Aerodrome Forecast
Issued by NWS

Current Version | Previous Version | Text Only | Print | Product List | Glossary On
Versions: 1 2 3 4 5 6 7 8 9 10 11 12 13 14 15 16 17 18 19
000
FTUS46 KMTR 291133
TAFSNS
TAF
KSNS 291133Z 2912/3012 27008KT P6SM OVC010
     FM291800 29004KT P6SM SKC
     FM292000 27015KT P6SM SKC
     FM300400 27011KT P6SM OVC007=

USA.gov is the U.S. government's official web portal to all federal, state and local government web resources and services.